createdAt,value
2019-05-05T00:03:15.990Z,6.37
2019-05-05T00:08:21.475Z,5.65
2019-05-05T00:13:44.753Z,6.33
2019-05-05T00:18:49.846Z,5.58
2019-05-05T00:23:55.359Z,5.50
2019-05-05T00:28:59.382Z,5.25
2019-05-05T00:34:04.984Z,5.20
2019-05-05T00:39:12.021Z,4.65
2019-05-05T00:44:15.883Z,4.97
2019-05-05T00:49:19.869Z,5.20
2019-05-05T00:54:24.439Z,6.00
2019-05-05T00:59:30.022Z,6.83
2019-05-05T01:04:35.475Z,5.80
2019-05-05T01:09:40.046Z,6.05
2019-05-05T01:14:44.751Z,5.65
2019-05-05T01:20:00.215Z,6.53
2019-05-05T01:24:55.781Z,6.95
2019-05-05T01:29:59.956Z,6.92
2019-05-05T01:35:05.478Z,7.50
2019-05-05T01:40:14.203Z,7.15
2019-05-05T01:45:18.277Z,6.87
2019-05-05T01:50:24.580Z,7.65
2019-05-05T01:55:27.766Z,7.97
2019-05-05T02:00:31.638Z,7.87
2019-05-05T02:05:35.509Z,8.80
2019-05-05T02:10:39.379Z,8.20
2019-05-05T02:15:44.598Z,8.98
2019-05-05T02:21:06.025Z,9.40
2019-05-05T02:26:10.085Z,9.40
2019-05-05T02:31:16.709Z,8.95
2019-05-05T02:36:20.708Z,8.98
2019-05-05T02:41:25.649Z,9.35
2019-05-05T02:46:37.351Z,9.28
2019-05-05T02:51:44.736Z,9.28
2019-05-05T02:56:49.701Z,9.95
2019-05-05T03:01:58.624Z,9.85
2019-05-05T03:07:04.718Z,7.53
2019-05-05T03:12:11.144Z,10.98
2019-05-05T03:17:15.600Z,10.48
2019-05-05T03:22:19.972Z,10.98
2019-05-05T03:27:24.149Z,11.03
2019-05-05T03:32:28.624Z,11.18
2019-05-05T03:37:34.338Z,11.55
2019-05-05T03:42:40.264Z,11.68
2019-05-05T03:47:44.200Z,11.33
2019-05-05T03:52:48.106Z,13.05
2019-05-05T03:57:53.811Z,11.60
2019-05-05T04:02:59.426Z,12.55
2019-05-05T04:08:03.943Z,11.05
2019-05-05T04:13:08.577Z,12.33
2019-05-05T04:18:14.580Z,12.23
2019-05-05T04:23:18.595Z,12.80
2019-05-05T04:28:24.070Z,13.08
2019-05-05T04:33:28.144Z,11.88
2019-05-05T04:38:32.016Z,11.35
2019-05-05T04:43:35.888Z,12.50
2019-05-05T04:48:41.333Z,12.03
2019-05-05T04:54:03.789Z,11.30
2019-05-05T04:59:07.833Z,10.98
2019-05-05T05:04:13.765Z,10.68
2019-05-05T05:09:17.852Z,14.68
2019-05-05T05:14:21.728Z,13.20
2019-05-05T05:19:25.612Z,10.80
2019-05-05T05:24:29.481Z,11.33
2019-05-05T05:29:34.557Z,10.48
2019-05-05T05:34:38.621Z,11.20
2019-05-05T05:39:56.403Z,10.85
2019-05-05T05:45:10.932Z,11.12
2019-05-05T05:50:19.183Z,11.10
2019-05-05T05:55:23.805Z,11.30
2019-05-05T06:00:27.828Z,11.38
2019-05-05T06:05:31.701Z,10.50
2019-05-05T06:10:35.585Z,10.50
2019-05-05T06:15:39.512Z,10.18
2019-05-05T06:20:44.569Z,12.60
2019-05-05T06:25:48.748Z,9.78
2019-05-05T06:30:54.449Z,8.78
2019-05-05T06:35:58.255Z,8.15
2019-05-05T06:41:09.786Z,15.15
2019-05-05T06:46:18.041Z,7.90
2019-05-05T06:51:22.006Z,7.40
2019-05-05T06:56:25.940Z,8.03
2019-05-05T07:01:29.878Z,6.95
2019-05-05T07:06:34.379Z,7.33
2019-05-05T07:11:38.376Z,6.20
2019-05-05T07:16:43.809Z,5.53
2019-05-05T07:21:47.819Z,4.40
2019-05-05T07:26:53.944Z,4.10
2019-05-05T07:31:57.219Z,3.45
2019-05-05T07:37:01.090Z,4.50
2019-05-05T07:42:04.954Z,7.03
2019-05-05T07:47:08.831Z,5.60
2019-05-05T07:52:14.888Z,5.45
2019-05-05T07:57:18.257Z,5.22
2019-05-05T08:02:23.673Z,3.67
2019-05-05T08:07:27.693Z,7.17
2019-05-05T08:12:31.597Z,3.40
2019-05-05T08:17:38.971Z,3.47
2019-05-05T08:22:44.303Z,4.35
2019-05-05T08:27:55.768Z,6.60
2019-05-05T08:32:59.996Z,5.00
2019-05-05T08:38:04.708Z,4.08
2019-05-05T08:43:09.120Z,2.80
2019-05-05T08:48:14.213Z,3.17
2019-05-05T08:53:18.536Z,5.80
2019-05-05T08:58:23.793Z,4.12
2019-05-05T09:03:28.061Z,3.20
2019-05-05T09:08:34.731Z,2.00
2019-05-05T09:13:38.916Z,2.87
2019-05-05T09:18:59.678Z,2.22
2019-05-05T09:24:17.261Z,2.70
2019-05-05T09:29:25.489Z,2.08
2019-05-05T09:34:29.429Z,2.60
2019-05-05T09:39:34.546Z,2.22
2019-05-05T09:44:38.770Z,1.77
2019-05-05T09:49:44.555Z,5.80
2019-05-05T09:54:48.832Z,2.95
2019-05-05T09:59:54.992Z,4.17
2019-05-05T10:04:59.005Z,2.87
2019-05-05T10:10:04.560Z,1.70
2019-05-05T10:15:08.884Z,2.47
2019-05-05T10:20:14.551Z,2.83
2019-05-05T10:25:27.339Z,3.22
2019-05-05T10:30:31.351Z,1.98
2019-05-05T10:35:36.276Z,1.42
2019-05-05T10:40:40.748Z,1.67
2019-05-05T10:45:46.495Z,1.47
2019-05-05T10:50:50.515Z,1.32
2019-05-05T10:55:54.485Z,2.47
2019-05-05T11:01:00.594Z,1.30
2019-05-05T11:06:04.762Z,1.30
2019-05-05T11:11:08.704Z,1.40
2019-05-05T11:16:14.480Z,2.05
2019-05-05T11:21:20.608Z,1.40
2019-05-05T11:26:25.636Z,2.50
2019-05-05T11:31:31.483Z,1.40
2019-05-05T11:36:40.597Z,1.80
2019-05-05T11:41:45.404Z,8.20
2019-05-05T11:46:49.521Z,1.60
2019-05-05T11:51:54.247Z,1.82
2019-05-05T11:56:58.740Z,2.10
2019-05-05T12:02:03.819Z,2.37
2019-05-05T12:07:08.043Z,1.82
2019-05-05T12:12:14.243Z,1.32
2019-05-05T12:17:36.774Z,1.60
2019-05-05T12:22:41.181Z,1.60
2019-05-05T12:28:04.437Z,2.08
2019-05-05T12:33:08.597Z,1.80
2019-05-05T12:38:12.740Z,1.98
2019-05-05T12:43:17.093Z,1.90
2019-05-05T12:48:24.179Z,1.72
2019-05-05T12:53:28.275Z,1.77
2019-05-05T12:58:33.587Z,1.70
2019-05-05T13:03:40.375Z,1.37
2019-05-05T13:08:45.556Z,1.62
2019-05-05T13:13:49.642Z,1.82
2019-05-05T13:18:54.000Z,1.40
2019-05-05T13:23:59.740Z,1.90
2019-05-05T13:29:04.929Z,1.70
2019-05-05T13:34:09.085Z,1.77
2019-05-05T13:39:14.409Z,1.50
2019-05-05T13:44:20.158Z,1.60
2019-05-05T13:49:28.228Z,1.42
2019-05-05T13:54:33.515Z,1.55
2019-05-05T13:59:37.978Z,1.75
2019-05-05T14:04:43.942Z,1.40
2019-05-05T14:09:48.157Z,1.25
2019-05-05T14:14:54.726Z,2.00
2019-05-05T14:20:06.206Z,1.52
2019-05-05T14:25:08.605Z,1.37
2019-05-05T14:30:17.901Z,1.50
2019-05-05T14:35:26.679Z,1.50
2019-05-05T14:40:33.884Z,1.03
2019-05-05T14:45:38.706Z,1.70
2019-05-05T14:50:44.403Z,1.90
2019-05-05T14:55:49.335Z,1.67
2019-05-05T15:00:53.543Z,1.70
2019-05-05T15:05:59.173Z,1.60
2019-05-05T15:11:07.481Z,2.40
2019-05-05T15:16:11.447Z,1.12
2019-05-05T15:21:15.438Z,1.40
2019-05-05T15:26:19.305Z,1.52
2019-05-05T15:31:23.772Z,1.52
2019-05-05T15:36:29.666Z,1.75
2019-05-05T15:41:34.169Z,1.90
2019-05-05T15:46:38.136Z,1.70
2019-05-05T15:51:42.020Z,1.50
2019-05-05T15:56:45.978Z,7.97
2019-05-05T16:01:50.063Z,16.85
2019-05-05T16:06:54.238Z,6.37
2019-05-05T16:11:58.210Z,1.55
2019-05-05T16:17:18.599Z,1.72
2019-05-05T16:22:25.490Z,1.90
2019-05-05T16:27:29.437Z,1.85
2019-05-05T16:32:33.440Z,1.92
2019-05-05T16:37:37.407Z,2.92
2019-05-05T16:42:41.276Z,2.20
2019-05-05T16:47:45.437Z,1.65
2019-05-05T16:52:54.515Z,2.00
2019-05-05T16:57:58.808Z,3.12
2019-05-05T17:03:04.199Z,4.20
2019-05-05T17:08:08.318Z,11.68
2019-05-05T17:13:26.158Z,20.82
2019-05-05T17:18:46.830Z,6.33
2019-05-05T17:23:50.800Z,9.50
2019-05-05T17:28:57.312Z,24.75
2019-05-05T17:34:01.412Z,16.42
2019-05-05T17:39:09.043Z,18.70
2019-05-05T17:44:14.819Z,17.55
2019-05-05T17:49:26.799Z,10.40
2019-05-05T17:54:33.933Z,4.70
2019-05-05T17:59:37.974Z,12.65
2019-05-05T18:04:44.565Z,8.83
2019-05-05T18:09:56.025Z,9.53
2019-05-05T18:15:04.517Z,13.45
2019-05-05T18:20:09.306Z,13.70
2019-05-05T18:25:15.472Z,4.87
2019-05-05T18:30:21.096Z,3.40
2019-05-05T18:35:25.041Z,22.42
2019-05-05T18:40:29.001Z,26.40
2019-05-05T18:45:33.114Z,50.67
2019-05-05T18:50:40.098Z,7.42
2019-05-05T18:55:46.352Z,3.58
2019-05-05T19:01:13.660Z,5.00
2019-05-05T19:06:19.273Z,4.17
2019-05-05T19:11:24.559Z,3.87
2019-05-05T19:16:28.758Z,7.90
2019-05-05T19:21:37.011Z,21.00
2019-05-05T19:26:40.982Z,7.60
2019-05-05T19:31:46.426Z,3.65
2019-05-05T19:36:50.360Z,4.22
2019-05-05T19:41:54.556Z,5.15
2019-05-05T19:47:05.714Z,5.53
2019-05-05T19:52:08.593Z,3.62
2019-05-05T19:57:14.298Z,2.47
2019-05-05T20:02:18.468Z,16.60
2019-05-05T20:07:24.660Z,3.83
2019-05-05T20:12:27.976Z,5.30
2019-05-05T20:17:33.836Z,3.30
2019-05-05T20:22:37.736Z,3.92
2019-05-05T20:27:41.615Z,4.05
2019-05-05T20:32:56.079Z,5.58
2019-05-05T20:38:04.745Z,6.78
2019-05-05T20:43:08.588Z,8.18
2019-05-05T20:48:12.465Z,8.35
2019-05-05T20:53:16.482Z,7.25
2019-05-05T20:58:20.356Z,7.95
2019-05-05T21:03:24.249Z,7.80
2019-05-05T21:08:28.137Z,8.50
2019-05-05T21:13:34.155Z,9.05
2019-05-05T21:18:37.724Z,10.45
2019-05-05T21:23:43.875Z,15.32
2019-05-05T21:28:49.677Z,27.58
2019-05-05T21:33:54.855Z,19.37
2019-05-05T21:38:59.101Z,32.83
2019-05-05T21:44:04.328Z,12.37
2019-05-05T21:49:08.246Z,15.50
2019-05-05T21:54:25.907Z,15.83
2019-05-05T21:59:29.820Z,13.10
2019-05-05T22:04:33.874Z,10.68
2019-05-05T22:09:38.878Z,13.78
2019-05-05T22:14:43.916Z,14.28
2019-05-05T22:19:49.628Z,12.45
2019-05-05T22:24:54.050Z,9.28
2019-05-05T22:30:09.004Z,8.00
2019-05-05T22:35:05.212Z,7.72
2019-05-05T22:40:11.331Z,7.30
2019-05-05T22:45:15.301Z,7.20
2019-05-05T22:50:19.847Z,6.85
2019-05-05T22:55:24.709Z,6.90
2019-05-05T23:00:30.571Z,6.80
2019-05-05T23:05:36.318Z,6.60
2019-05-05T23:10:40.258Z,6.90
2019-05-05T23:16:00.809Z,6.55
2019-05-05T23:21:15.625Z,6.92
2019-05-05T23:26:19.215Z,7.20
2019-05-05T23:31:26.260Z,7.28
2019-05-05T23:36:30.198Z,7.25
2019-05-05T23:41:36.686Z,7.58
2019-05-05T23:46:40.609Z,6.50
2019-05-05T23:51:47.482Z,6.55
2019-05-05T23:56:53.600Z,6.60
